Time;durP1;ratioP1;P1;durP2;ratioP2;P2;SDS_P1;SDS_P2;PMS_P1;PMS_P2;Temp;Humidity;BMP_temperature;BMP_pressure;BME280_temperature;BME280_humidity;BME280_pressure;Samples;Min_cycle;Max_cycle;Signal;HPM_P1;HPM_P2
2021/05/01 00:00:06;;;;;;;18.00;9.40;;;;;;;;;;5096754;28;20031;-81
2021/05/01 00:02:32;;;;;;;18.13;8.88;;;;;;;;;;5096694;28;20016;-83
2021/05/01 00:04:58;;;;;;;18.90;9.90;;;;;;;;;;5079219;28;20035;-83
2021/05/01 00:07:25;;;;;;;20.63;11.10;;;;;;;;;;5081186;28;20418;-86
2021/05/01 00:09:51;;;;;;;17.13;11.13;;;;;;;;;;5099721;28;20069;-83
2021/05/01 00:12:18;;;;;;;18.42;10.00;;;;;;;;;;5117664;28;20028;-82
2021/05/01 00:14:44;;;;;;;23.00;11.13;;;;;;;;;;5117920;28;20110;-83
2021/05/01 00:17:10;;;;;;;16.90;10.13;;;;;;;;;;5117937;28;20049;-83
2021/05/01 00:19:36;;;;;;;19.15;10.90;;;;;;;;;;5117713;28;20020;-83
2021/05/01 00:22:02;;;;;;;20.05;10.35;;;;;;;;;;5117674;28;20115;-82
2021/05/01 00:24:28;;;;;;;16.17;10.13;;;;;;;;;;5117478;28;20020;-84
2021/05/01 00:26:54;;;;;;;20.60;11.05;;;;;;;;;;5117676;28;20032;-86
2021/05/01 00:29:20;;;;;;;18.75;10.52;;;;;;;;;;5117634;28;20028;-85
2021/05/01 00:31:46;;;;;;;19.92;10.13;;;;;;;;;;5118375;28;20106;-86
2021/05/01 00:34:13;;;;;;;19.80;10.38;;;;;;;;;;5117883;28;20027;-84
2021/05/01 00:36:39;;;;;;;22.05;9.98;;;;;;;;;;5117399;28;20028;-84
2021/05/01 00:39:05;;;;;;;17.30;10.00;;;;;;;;;;5102033;28;20024;-84
2021/05/01 00:41:31;;;;;;;17.35;9.73;;;;;;;;;;5103537;28;20019;-93
2021/05/01 00:43:58;;;;;;;19.42;10.93;;;;;;;;;;5121807;28;20024;-93
2021/05/01 00:46:24;;;;;;;18.20;11.25;;;;;;;;;;5103911;28;20118;-89
2021/05/01 00:48:51;;;;;;;19.65;10.60;;;;;;;;;;5121163;28;20034;-89
2021/05/01 00:51:17;;;;;;;20.08;10.77;;;;;;;;;;5121840;28;20028;-92
2021/05/01 00:53:43;;;;;;;18.27;10.75;;;;;;;;;;5122008;28;20034;-91
2021/05/01 00:56:09;;;;;;;16.92;10.70;;;;;;;;;;5103589;28;20054;-92
2021/05/01 00:58:35;;;;;;;17.55;10.38;;;;;;;;;;5121507;28;20421;-92
2021/05/01 01:03:37;;;;;;;19.17;10.63;;;;;;;;;;5121717;28;20077;-92
2021/05/01 01:06:03;;;;;;;18.23;11.52;;;;;;;;;;5121269;28;20051;-92
2021/05/01 01:08:29;;;;;;;18.52;10.75;;;;;;;;;;5121241;28;20114;-92
2021/05/01 01:10:55;;;;;;;18.42;10.18;;;;;;;;;;5103439;28;20028;-92
2021/05/01 01:13:22;;;;;;;18.52;9.38;;;;;;;;;;5102938;28;20038;-92
2021/05/01 01:15:48;;;;;;;15.63;9.60;;;;;;;;;;5121501;28;20073;-93
2021/05/01 01:18:14;;;;;;;16.48;8.65;;;;;;;;;;5102875;28;20405;-95
2021/05/01 01:20:40;;;;;;;14.63;9.70;;;;;;;;;;5103238;28;20023;-95
2021/05/01 01:23:06;;;;;;;13.80;8.30;;;;;;;;;;5121366;28;20015;-94
2021/05/01 01:25:33;;;;;;;24.23;8.30;;;;;;;;;;5103117;28;20036;-93
2021/05/01 01:27:59;;;;;;;15.25;7.63;;;;;;;;;;5103557;28;20050;-93
2021/05/01 01:30:28;;;;;;;20.58;8.10;;;;;;;;;;5103194;28;20051;-94
2021/05/01 01:32:54;;;;;;;17.25;9.30;;;;;;;;;;5102970;28;20032;-93
2021/05/01 01:35:21;;;;;;;14.70;9.23;;;;;;;;;;5120857;28;20037;-93
2021/05/01 01:37:47;;;;;;;17.65;9.55;;;;;;;;;;5102770;28;20016;-90
2021/05/01 01:40:14;;;;;;;13.48;7.82;;;;;;;;;;5120891;28;20371;-91
2021/05/01 01:43:18;;;;;;;14.90;6.85;;;;;;;;;;5121172;28;20139;-91
2021/05/01 01:45:45;;;;;;;12.82;7.20;;;;;;;;;;5102694;28;20024;-90
2021/05/01 01:48:11;;;;;;;11.02;6.63;;;;;;;;;;5120479;28;20020;-91
2021/05/01 01:50:37;;;;;;;11.98;6.13;;;;;;;;;;5120395;28;20405;-91
2021/05/01 01:53:03;;;;;;;11.52;6.65;;;;;;;;;;5120887;28;20024;-91
2021/05/01 01:55:30;;;;;;;12.77;6.65;;;;;;;;;;5102261;28;20019;-91
2021/05/01 01:57:56;;;;;;;12.75;7.07;;;;;;;;;;5120586;28;20031;-91
2021/05/01 02:00:22;;;;;;;18.65;7.78;;;;;;;;;;5120538;28;20020;-90
2021/05/01 02:02:48;;;;;;;15.30;7.28;;;;;;;;;;5120361;28;20026;-90
2021/05/01 02:05:15;;;;;;;18.10;8.05;;;;;;;;;;5102352;28;20095;-90
2021/05/01 02:07:41;;;;;;;15.68;6.85;;;;;;;;;;5102226;28;20111;-89
2021/05/01 02:10:09;;;;;;;18.75;7.97;;;;;;;;;;5120178;28;20421;-90
2021/05/01 02:12:38;;;;;;;15.13;7.00;;;;;;;;;;5120174;28;20016;-89
2021/05/01 02:15:10;;;;;;;14.63;6.97;;;;;;;;;;5119910;28;20110;-90
2021/05/01 02:17:37;;;;;;;12.65;7.13;;;;;;;;;;5120124;28;20070;-89
2021/05/01 02:20:04;;;;;;;13.45;6.85;;;;;;;;;;5101852;28;20034;-90
2021/05/01 02:22:30;;;;;;;11.98;6.50;;;;;;;;;;5119521;28;20022;-88
2021/05/01 02:24:56;;;;;;;15.90;6.30;;;;;;;;;;5119792;28;20019;-88
2021/05/01 02:27:22;;;;;;;12.90;6.50;;;;;;;;;;5101856;28;20061;-88
2021/05/01 02:32:52;;;;;;;11.93;6.85;;;;;;;;;;5119810;28;20148;-88
2021/05/01 02:35:19;;;;;;;18.48;8.32;;;;;;;;;;5101528;28;20069;-88
2021/05/01 02:37:46;;;;;;;17.90;10.90;;;;;;;;;;5119428;28;20058;-88
2021/05/01 02:40:12;;;;;;;18.52;8.20;;;;;;;;;;5119549;28;20015;-88
2021/05/01 02:42:39;;;;;;;16.17;8.07;;;;;;;;;;5101778;28;20028;-88
2021/05/01 02:48:09;;;;;;;14.45;7.10;;;;;;;;;;5119728;28;20062;-89
2021/05/01 02:50:35;;;;;;;13.27;7.93;;;;;;;;;;5119570;28;20362;-93
2021/05/01 02:53:01;;;;;;;16.77;7.90;;;;;;;;;;5119562;28;20023;-93
2021/05/01 02:55:27;;;;;;;20.17;8.00;;;;;;;;;;5101190;28;20043;-93
2021/05/01 03:03:46;;;;;;;13.57;9.10;;;;;;;;;;5119431;28;20062;-89
2021/05/01 03:06:13;;;;;;;20.45;11.45;;;;;;;;;;5119033;28;20060;-88
2021/05/01 03:08:39;;;;;;;20.60;10.63;;;;;;;;;;5118941;28;20466;-87
2021/05/01 03:11:05;;;;;;;16.83;9.02;;;;;;;;;;5100819;28;20464;-89
2021/05/01 03:13:31;;;;;;;15.48;8.40;;;;;;;;;;5100793;28;20031;-91
2021/05/01 03:15:57;;;;;;;15.05;8.27;;;;;;;;;;5118886;28;20024;-89
2021/05/01 03:18:23;;;;;;;15.43;7.70;;;;;;;;;;5100775;28;20019;-93
2021/05/01 03:20:49;;;;;;;18.17;7.88;;;;;;;;;;5118837;28;20022;-94
2021/05/01 03:23:16;;;;;;;14.10;7.38;;;;;;;;;;5118630;28;20027;-91
2021/05/01 03:25:42;;;;;;;13.57;7.22;;;;;;;;;;5100897;28;20362;-89
2021/05/01 03:28:08;;;;;;;18.85;8.30;;;;;;;;;;5118810;28;20084;-91
2021/05/01 03:30:34;;;;;;;13.63;8.32;;;;;;;;;;5100671;28;20053;-91
2021/05/01 03:33:00;;;;;;;15.40;7.82;;;;;;;;;;5118567;28;20020;-91
2021/05/01 03:35:26;;;;;;;13.10;7.85;;;;;;;;;;5118178;28;20118;-91
2021/05/01 03:37:52;;;;;;;13.15;7.70;;;;;;;;;;5118272;28;20107;-90
2021/05/01 03:40:18;;;;;;;18.33;7.60;;;;;;;;;;5118396;28;20405;-89
2021/05/01 03:42:44;;;;;;;14.73;7.32;;;;;;;;;;5118772;28;20030;-89
2021/05/01 03:51:51;;;;;;;13.32;6.85;;;;;;;;;;5118501;28;20033;-90
2021/05/01 03:54:17;;;;;;;11.27;7.10;;;;;;;;;;5099946;28;20019;-91
2021/05/01 03:56:43;;;;;;;13.57;6.68;;;;;;;;;;5118329;28;20043;-91
2021/05/01 03:59:10;;;;;;;11.95;7.43;;;;;;;;;;5118285;28;20024;-90
2021/05/01 04:01:36;;;;;;;19.40;8.23;;;;;;;;;;5100351;28;20019;-88
2021/05/01 04:04:02;;;;;;;14.38;7.30;;;;;;;;;;5099953;28;20028;-89
2021/05/01 04:06:28;;;;;;;19.38;8.25;;;;;;;;;;5117754;28;20175;-92
2021/05/01 04:08:55;;;;;;;29.95;10.98;;;;;;;;;;5099685;28;20032;-92
2021/05/01 04:11:21;;;;;;;27.63;10.68;;;;;;;;;;5100784;28;20032;-91
2021/05/01 04:13:47;;;;;;;31.35;10.18;;;;;;;;;;5122175;28;20110;-91
2021/05/01 04:16:14;;;;;;;24.38;10.55;;;;;;;;;;5104271;28;20154;-90
2021/05/01 04:18:40;;;;;;;21.55;9.80;;;;;;;;;;5104353;28;20325;-91
2021/05/01 04:21:07;;;;;;;23.67;9.60;;;;;;;;;;5104508;28;20115;-93
2021/05/01 04:23:34;;;;;;;13.65;8.88;;;;;;;;;;5122085;28;20024;-93
2021/05/01 04:26:00;;;;;;;18.58;8.20;;;;;;;;;;5104312;28;20340;-92
2021/05/01 04:28:27;;;;;;;17.50;8.23;;;;;;;;;;5122364;28;20020;-92
2021/05/01 04:30:53;;;;;;;17.40;8.52;;;;;;;;;;5104464;28;20038;-93
2021/05/01 04:33:19;;;;;;;15.13;8.43;;;;;;;;;;5104087;28;20028;-91
2021/05/01 04:35:45;;;;;;;16.48;8.63;;;;;;;;;;5121797;28;20131;-92
2021/05/01 04:38:11;;;;;;;18.98;9.02;;;;;;;;;;5122082;28;20069;-94
2021/05/01 04:40:37;;;;;;;16.42;9.20;;;;;;;;;;5104109;28;20073;-95
2021/05/01 04:43:05;;;;;;;19.00;9.27;;;;;;;;;;5123549;28;20027;-96
2021/05/01 04:45:50;;;;;;;14.77;9.18;;;;;;;;;;5109373;28;20084;-95
2021/05/01 04:48:16;;;;;;;14.07;9.63;;;;;;;;;;5127268;28;20317;-95
2021/05/01 04:50:42;;;;;;;20.80;10.25;;;;;;;;;;5121864;28;20016;-93
2021/05/01 04:53:09;;;;;;;15.18;8.43;;;;;;;;;;5103476;28;20066;-91
2021/05/01 04:55:35;;;;;;;13.98;8.07;;;;;;;;;;5121806;28;20024;-92
2021/05/01 04:58:01;;;;;;;16.13;9.05;;;;;;;;;;5121837;28;20019;-91
2021/05/01 05:01:04;;;;;;;11.88;8.35;;;;;;;;;;5103423;28;20106;-91
2021/05/01 05:03:30;;;;;;;14.65;8.38;;;;;;;;;;5103328;28;20027;-92
2021/05/01 05:05:56;;;;;;;14.93;8.68;;;;;;;;;;5103166;28;20337;-91
2021/05/01 05:08:22;;;;;;;16.10;9.88;;;;;;;;;;5121634;28;20020;-91
2021/05/01 05:10:48;;;;;;;18.55;10.43;;;;;;;;;;5121484;28;20024;-91
2021/05/01 05:13:14;;;;;;;20.75;10.35;;;;;;;;;;5121045;28;20428;-91
2021/05/01 05:21:57;;;;;;;14.18;9.07;;;;;;;;;;5121418;28;20058;-89
2021/05/01 05:24:23;;;;;;;22.77;9.63;;;;;;;;;;5101832;28;20031;-94
2021/05/01 05:26:49;;;;;;;16.45;9.05;;;;;;;;;;5121156;28;20024;-94
2021/05/01 05:29:15;;;;;;;14.95;8.60;;;;;;;;;;5103131;28;20160;-90
2021/05/01 05:31:41;;;;;;;16.13;9.45;;;;;;;;;;5120467;28;20107;-87
2021/05/01 05:34:07;;;;;;;15.93;9.48;;;;;;;;;;5121087;28;20031;-90
2021/05/01 05:36:33;;;;;;;15.65;9.57;;;;;;;;;;5121426;28;20130;-92
2021/05/01 05:38:59;;;;;;;15.75;10.13;;;;;;;;;;5120518;28;20028;-92
2021/05/01 05:41:26;;;;;;;18.50;10.23;;;;;;;;;;5102283;28;20126;-90
2021/05/01 05:43:52;;;;;;;15.00;9.63;;;;;;;;;;5108452;28;20081;-89
2021/05/01 05:46:18;;;;;;;15.38;9.73;;;;;;;;;;5100093;28;20048;-89
2021/05/01 05:48:44;;;;;;;14.82;9.85;;;;;;;;;;5100617;28;20437;-94
2021/05/01 05:51:11;;;;;;;20.00;11.40;;;;;;;;;;5100319;28;20028;-91
2021/05/01 05:53:37;;;;;;;15.68;8.82;;;;;;;;;;5100252;28;20085;-92
2021/05/01 05:56:03;;;;;;;18.60;8.77;;;;;;;;;;5100343;28;20032;-91
2021/05/01 05:58:29;;;;;;;26.50;16.48;;;;;;;;;;5100014;28;20328;-91
2021/05/01 06:07:05;;;;;;;19.73;10.35;;;;;;;;;;5099074;28;20142;-89
2021/05/01 06:09:32;;;;;;;17.00;10.07;;;;;;;;;;5099335;28;20024;-89
2021/05/01 06:12:00;;;;;;;18.60;10.48;;;;;;;;;;5099687;28;20070;-89
2021/05/01 06:14:27;;;;;;;18.70;11.10;;;;;;;;;;5101607;28;20033;-89
2021/05/01 06:16:54;;;;;;;17.40;10.35;;;;;;;;;;5061387;28;20377;-89
2021/05/01 06:19:21;;;;;;;17.08;10.40;;;;;;;;;;5061288;28;20017;-89
2021/05/01 06:21:47;;;;;;;16.98;10.50;;;;;;;;;;5079163;28;20322;-89
2021/05/01 06:24:13;;;;;;;20.50;13.13;;;;;;;;;;5078987;28;20104;-88
2021/05/01 06:26:39;;;;;;;26.25;16.65;;;;;;;;;;5060885;28;20031;-88
2021/05/01 06:29:06;;;;;;;97.90;67.43;;;;;;;;;;5079144;28;20418;-87
2021/05/01 06:31:35;;;;;;;69.72;46.47;;;;;;;;;;5078838;28;20031;-88
2021/05/01 06:34:02;;;;;;;141.90;100.00;;;;;;;;;;5079180;28;20156;-87
2021/05/01 06:36:28;;;;;;;103.07;71.78;;;;;;;;;;5060083;28;20036;-91
2021/05/01 06:38:59;;;;;;;68.35;45.63;;;;;;;;;;5060580;28;20017;-89
2021/05/01 06:41:28;;;;;;;78.47;50.85;;;;;;;;;;5078645;28;20025;-90
2021/05/01 06:44:19;;;;;;;111.15;70.78;;;;;;;;;;5086883;28;20020;-91
2021/05/01 06:46:49;;;;;;;111.60;75.95;;;;;;;;;;5099237;28;20132;-90
2021/05/01 06:49:18;;;;;;;85.30;58.88;;;;;;;;;;5099060;28;20040;-90
2021/05/01 06:51:44;;;;;;;116.28;80.43;;;;;;;;;;5098506;28;20051;-89
2021/05/01 06:54:11;;;;;;;48.28;32.55;;;;;;;;;;5098759;28;20448;-89
2021/05/01 06:56:41;;;;;;;106.35;74.10;;;;;;;;;;5114721;28;20106;-90
2021/05/01 06:59:09;;;;;;;121.25;85.47;;;;;;;;;;5098375;28;20100;-93
2021/05/01 07:01:35;;;;;;;73.60;51.95;;;;;;;;;;5098512;28;20028;-91
2021/05/01 07:04:02;;;;;;;56.03;36.33;;;;;;;;;;5098375;28;20024;-87
2021/05/01 07:06:28;;;;;;;73.55;47.30;;;;;;;;;;5080038;28;20048;-92
2021/05/01 07:08:55;;;;;;;48.15;31.90;;;;;;;;;;5098351;28;20024;-85
2021/05/01 07:11:21;;;;;;;52.75;36.55;;;;;;;;;;5098682;28;20144;-85
2021/05/01 07:13:48;;;;;;;47.17;32.45;;;;;;;;;;5097510;28;20410;-87
2021/05/01 07:16:14;;;;;;;39.88;27.83;;;;;;;;;;5098553;28;20069;-87
2021/05/01 07:18:44;;;;;;;64.63;44.17;;;;;;;;;;5097919;28;20024;-87
2021/05/01 07:21:11;;;;;;;28.38;17.23;;;;;;;;;;5079723;28;20036;-87
2021/05/01 07:23:37;;;;;;;70.38;48.20;;;;;;;;;;5098191;28;20099;-91
2021/05/01 07:26:05;;;;;;;43.83;29.23;;;;;;;;;;5098292;28;20050;-90
2021/05/01 07:28:35;;;;;;;39.10;27.40;;;;;;;;;;5098069;28;20398;-91
2021/05/01 07:34:07;;;;;;;43.03;31.15;;;;;;;;;;5098592;28;20437;-86
2021/05/01 07:36:33;;;;;;;141.43;100.28;;;;;;;;;;5080257;28;20028;-91
2021/05/01 07:39:01;;;;;;;48.75;35.30;;;;;;;;;;5098140;28;20062;-89
2021/05/01 07:41:27;;;;;;;49.60;35.58;;;;;;;;;;5098482;28;20058;-88
2021/05/01 07:43:54;;;;;;;38.33;28.10;;;;;;;;;;5099357;28;20023;-89
2021/05/01 07:49:24;;;;;;;19.58;12.55;;;;;;;;;;5118806;28;20038;-91
2021/05/01 07:51:51;;;;;;;20.38;12.20;;;;;;;;;;5101473;28;20020;-90
2021/05/01 07:54:17;;;;;;;64.10;52.05;;;;;;;;;;5098011;28;20099;-90
2021/05/01 07:56:43;;;;;;;54.22;34.00;;;;;;;;;;5098011;28;20024;-90
2021/05/01 07:59:10;;;;;;;31.75;22.15;;;;;;;;;;5098171;28;20021;-89
2021/05/01 08:01:36;;;;;;;25.30;15.32;;;;;;;;;;5097921;28;20039;-88
2021/05/01 08:04:02;;;;;;;20.45;14.95;;;;;;;;;;5079578;28;20063;-89
2021/05/01 08:06:29;;;;;;;21.25;12.32;;;;;;;;;;5097576;28;20059;-83
2021/05/01 08:08:56;;;;;;;18.80;12.77;;;;;;;;;;5097490;28;20063;-90
2021/05/01 08:11:23;;;;;;;28.13;16.23;;;;;;;;;;5097724;28;20020;-90
2021/05/01 08:13:49;;;;;;;23.08;14.55;;;;;;;;;;5097550;28;20031;-93
2021/05/01 08:16:16;;;;;;;39.05;24.25;;;;;;;;;;5099364;28;20111;-89
2021/05/01 08:18:43;;;;;;;21.23;11.90;;;;;;;;;;5077045;28;20066;-86
2021/05/01 08:21:09;;;;;;;31.92;20.08;;;;;;;;;;5089949;28;20031;-87
2021/05/01 08:23:36;;;;;;;23.10;14.15;;;;;;;;;;5097590;28;20020;-88
2021/05/01 08:26:03;;;;;;;18.35;11.30;;;;;;;;;;5097440;28;20035;-90
2021/05/01 08:28:29;;;;;;;24.75;16.63;;;;;;;;;;5098116;28;20020;-88
2021/05/01 08:30:55;;;;;;;18.17;10.65;;;;;;;;;;5097616;28;20028;-85
2021/05/01 08:33:21;;;;;;;19.35;9.68;;;;;;;;;;5113347;28;20410;-88
2021/05/01 08:35:48;;;;;;;21.65;10.32;;;;;;;;;;5100475;28;20032;-84
2021/05/01 08:38:14;;;;;;;18.20;10.48;;;;;;;;;;5097533;28;20033;-84
2021/05/01 08:40:40;;;;;;;26.00;13.63;;;;;;;;;;5079487;28;20051;-84
2021/05/01 08:43:06;;;;;;;19.40;11.30;;;;;;;;;;5097155;28;20032;-85
2021/05/01 08:46:12;;;;;;;31.77;17.60;;;;;;;;;;5096670;28;20032;-84
2021/05/01 08:48:46;;;;;;;18.40;12.30;;;;;;;;;;5113564;28;20024;-85
2021/05/01 08:51:13;;;;;;;22.45;13.68;;;;;;;;;;5097088;28;20104;-85
2021/05/01 08:53:40;;;;;;;24.17;13.40;;;;;;;;;;5109397;28;20105;-85
2021/05/01 08:56:06;;;;;;;19.02;11.57;;;;;;;;;;5089883;28;20032;-86
2021/05/01 08:58:32;;;;;;;19.33;11.15;;;;;;;;;;5097117;28;20024;-86
2021/05/01 09:00:59;;;;;;;18.13;11.50;;;;;;;;;;5104408;28;20023;-87
2021/05/01 09:03:25;;;;;;;23.17;10.73;;;;;;;;;;5073389;28;20390;-84
2021/05/01 09:05:53;;;;;;;16.02;11.60;;;;;;;;;;5089882;28;20050;-86
2021/05/01 09:08:20;;;;;;;20.27;12.35;;;;;;;;;;5100696;28;20024;-87
2021/05/01 09:10:53;;;;;;;22.98;13.48;;;;;;;;;;5100763;28;20054;-87
2021/05/01 09:13:22;;;;;;;18.40;10.00;;;;;;;;;;5091967;28;20032;-87
2021/05/01 09:16:20;;;;;;;24.27;11.07;;;;;;;;;;5080529;28;20292;-85
2021/05/01 09:18:47;;;;;;;24.17;12.50;;;;;;;;;;5100318;28;20032;-86
2021/05/01 09:21:18;;;;;;;21.55;11.35;;;;;;;;;;5100572;28;20070;-85
2021/05/01 09:23:44;;;;;;;16.75;8.80;;;;;;;;;;5100677;28;20032;-83
2021/05/01 09:26:11;;;;;;;19.83;10.27;;;;;;;;;;5116579;28;20073;-87
2021/05/01 09:28:41;;;;;;;16.80;8.10;;;;;;;;;;5100342;28;20425;-86
2021/05/01 09:31:44;;;;;;;14.43;6.75;;;;;;;;;;5100317;28;20433;-86
2021/05/01 09:34:10;;;;;;;18.17;8.68;;;;;;;;;;5100174;28;20031;-87
2021/05/01 09:36:38;;;;;;;21.67;11.73;;;;;;;;;;5116235;28;20028;-86
2021/05/01 09:39:05;;;;;;;21.52;8.98;;;;;;;;;;5112809;28;20035;-84
2021/05/01 09:41:36;;;;;;;12.80;7.22;;;;;;;;;;5079843;28;20062;-84
2021/05/01 09:44:11;;;;;;;12.73;7.20;;;;;;;;;;5079608;28;20021;-84
2021/05/01 09:46:43;;;;;;;14.23;6.60;;;;;;;;;;5079549;28;20020;-84
2021/05/01 09:49:09;;;;;;;16.73;6.50;;;;;;;;;;5063272;28;20029;-84
2021/05/01 09:51:44;;;;;;;17.90;6.85;;;;;;;;;;5100193;28;20027;-86
2021/05/01 09:54:11;;;;;;;12.20;6.15;;;;;;;;;;5100291;28;20106;-86
2021/05/01 09:56:41;;;;;;;13.57;6.15;;;;;;;;;;5115818;28;20027;-85
2021/05/01 09:59:08;;;;;;;13.20;7.00;;;;;;;;;;5115620;28;20349;-84
2021/05/01 10:01:55;;;;;;;14.02;6.20;;;;;;;;;;5099526;28;20251;-85
2021/05/01 10:04:21;;;;;;;15.95;6.03;;;;;;;;;;5099899;28;20016;-84
2021/05/01 10:07:06;;;;;;;13.73;5.50;;;;;;;;;;5099384;28;20048;-83
2021/05/01 13:45:59;;;;;;;25.30;5.00;;;;;;;;;;5115067;27;20814;-81
2021/05/01 13:48:25;;;;;;;22.35;5.45;;;;;;;;;;5114927;28;20028;-81
2021/05/01 13:50:52;;;;;;;17.25;4.75;;;;;;;;;;5115056;28;20024;-81
2021/05/01 13:53:22;;;;;;;21.15;7.78;;;;;;;;;;5115065;28;20028;-81
2021/05/01 13:55:48;;;;;;;29.98;10.82;;;;;;;;;;5114959;28;20545;-80
2021/05/01 13:58:15;;;;;;;17.30;5.32;;;;;;;;;;5114703;28;20064;-81
2021/05/01 14:00:43;;;;;;;20.60;4.35;;;;;;;;;;5113744;28;20118;-81
2021/05/01 14:03:13;;;;;;;19.17;4.03;;;;;;;;;;5114022;28;20035;-81
2021/05/01 14:05:39;;;;;;;12.07;3.97;;;;;;;;;;5114838;28;20024;-81
2021/05/01 14:08:06;;;;;;;18.65;4.03;;;;;;;;;;5114860;28;20048;-81
2021/05/01 14:10:32;;;;;;;17.25;3.72;;;;;;;;;;5113476;28;20028;-81
2021/05/01 14:13:13;;;;;;;24.33;5.05;;;;;;;;;;5114727;28;20027;-81
2021/05/01 14:15:39;;;;;;;21.95;4.80;;;;;;;;;;5113417;28;20040;-81
2021/05/01 14:18:06;;;;;;;21.08;4.35;;;;;;;;;;5114452;28;20116;-81
2021/05/01 14:20:32;;;;;;;24.60;5.45;;;;;;;;;;5114299;28;20028;-81
2021/05/01 14:22:59;;;;;;;18.30;5.35;;;;;;;;;;5113344;28;20028;-80
2021/05/01 14:25:27;;;;;;;31.63;14.70;;;;;;;;;;5113105;28;20056;-81
2021/05/01 14:27:53;;;;;;;24.15;8.35;;;;;;;;;;5114403;28;20028;-81
2021/05/01 14:30:41;;;;;;;14.90;4.22;;;;;;;;;;5113858;28;20421;-81
2021/05/01 14:33:08;;;;;;;12.63;3.97;;;;;;;;;;5114369;28;20020;-81
2021/05/01 14:35:34;;;;;;;21.40;4.18;;;;;;;;;;5114280;28;20016;-81
2021/05/01 14:38:01;;;;;;;17.95;4.10;;;;;;;;;;5113070;28;20429;-80
2021/05/01 14:40:27;;;;;;;17.60;4.82;;;;;;;;;;5113042;28;20035;-81
2021/05/01 14:42:54;;;;;;;23.13;4.97;;;;;;;;;;5114138;28;20077;-81
2021/05/01 14:45:22;;;;;;;18.98;4.85;;;;;;;;;;5113726;28;20055;-84
2021/05/01 14:47:49;;;;;;;17.98;4.68;;;;;;;;;;5112774;28;20068;-81
2021/05/01 14:50:25;;;;;;;17.60;4.70;;;;;;;;;;5113922;28;20023;-81
2021/05/01 14:52:51;;;;;;;20.65;5.35;;;;;;;;;;5113930;28;20091;-81
2021/05/01 14:55:25;;;;;;;15.30;4.88;;;;;;;;;;5111739;28;20314;-81
2021/05/01 14:57:51;;;;;;;15.05;5.53;;;;;;;;;;5100080;28;20024;-81
2021/05/01 15:00:19;;;;;;;18.98;4.57;;;;;;;;;;5098781;28;20036;-81
2021/05/01 15:02:46;;;;;;;19.38;4.85;;;;;;;;;;5100036;28;20032;-81
2021/05/01 15:05:13;;;;;;;21.50;4.70;;;;;;;;;;5099980;28;20036;-81
2021/05/01 15:07:49;;;;;;;20.38;5.38;;;;;;;;;;5098916;28;20016;-81
2021/05/01 15:10:16;;;;;;;27.20;4.97;;;;;;;;;;5099805;28;20417;-81
2021/05/01 15:12:55;;;;;;;22.58;5.00;;;;;;;;;;5099543;28;20024;-81
2021/05/01 15:15:40;;;;;;;18.42;4.18;;;;;;;;;;5098689;28;20040;-81
2021/05/01 15:18:26;;;;;;;14.77;4.78;;;;;;;;;;5099831;28;20028;-81
2021/05/01 15:20:53;;;;;;;18.90;4.97;;;;;;;;;;5099634;28;20020;-81
2021/05/01 15:23:20;;;;;;;29.23;5.85;;;;;;;;;;5099776;28;20028;-81
2021/05/01 15:25:51;;;;;;;19.48;4.60;;;;;;;;;;5099286;28;20035;-81
2021/05/01 15:28:17;;;;;;;14.20;4.55;;;;;;;;;;5099588;28;20031;-81
2021/05/01 15:30:43;;;;;;;24.23;4.75;;;;;;;;;;5099433;28;20031;-81
2021/05/01 15:33:14;;;;;;;21.73;5.82;;;;;;;;;;5099575;28;20024;-81
2021/05/01 15:35:41;;;;;;;20.52;4.68;;;;;;;;;;5098305;28;20089;-81
2021/05/01 15:38:07;;;;;;;19.52;5.00;;;;;;;;;;5098396;28;20024;-81
2021/05/01 15:40:34;;;;;;;29.42;4.95;;;;;;;;;;5099241;28;20309;-81
2021/05/01 15:43:00;;;;;;;24.00;5.10;;;;;;;;;;5099230;28;20461;-81
2021/05/01 15:45:27;;;;;;;19.65;4.82;;;;;;;;;;5099035;28;20353;-81
2021/05/01 15:47:54;;;;;;;22.83;4.55;;;;;;;;;;5099276;28;20040;-81
2021/05/01 15:50:20;;;;;;;19.17;5.07;;;;;;;;;;5098759;28;20081;-81
2021/05/01 15:52:46;;;;;;;20.83;4.97;;;;;;;;;;5099120;28;20040;-81
2021/05/01 15:55:14;;;;;;;23.70;5.75;;;;;;;;;;5099248;28;20299;-81
2021/05/01 15:57:40;;;;;;;27.45;6.18;;;;;;;;;;5098731;28;20024;-81
2021/05/01 16:00:25;;;;;;;24.95;5.97;;;;;;;;;;5099503;28;20028;-81
2021/05/01 16:02:52;;;;;;;18.92;5.68;;;;;;;;;;5098373;28;20405;-82
2021/05/01 16:05:19;;;;;;;31.17;6.60;;;;;;;;;;5098570;28;20036;-81
2021/05/01 16:07:45;;;;;;;20.50;5.65;;;;;;;;;;5097798;28;20086;-81
2021/05/01 16:10:13;;;;;;;21.75;6.85;;;;;;;;;;5099056;28;20020;-82
2021/05/01 16:12:39;;;;;;;89.70;62.78;;;;;;;;;;5098768;28;20028;-81
2021/05/01 16:15:06;;;;;;;332.73;244.80;;;;;;;;;;5097493;28;20127;-80
2021/05/01 16:17:32;;;;;;;398.88;302.98;;;;;;;;;;5098497;28;20024;-81
2021/05/01 16:19:58;;;;;;;413.20;315.13;;;;;;;;;;5098500;28;20217;-82
2021/05/01 16:22:24;;;;;;;81.43;45.38;;;;;;;;;;5097399;28;20077;-82
2021/05/01 16:24:51;;;;;;;259.98;193.73;;;;;;;;;;5098395;28;20454;-83
2021/05/01 16:27:17;;;;;;;147.25;97.32;;;;;;;;;;5097412;28;20153;-82
2021/05/01 16:29:43;;;;;;;87.40;55.80;;;;;;;;;;5094952;28;20016;-84
2021/05/01 16:32:09;;;;;;;94.63;62.70;;;;;;;;;;5089081;28;20032;-80
2021/05/01 16:34:36;;;;;;;171.23;130.20;;;;;;;;;;5089569;28;20493;-84
2021/05/01 16:37:03;;;;;;;292.17;192.98;;;;;;;;;;5094440;28;20028;-82
2021/05/01 16:39:29;;;;;;;248.55;173.70;;;;;;;;;;5098024;28;20035;-82
2021/05/01 16:41:57;;;;;;;43.55;17.73;;;;;;;;;;5098304;28;20059;-82
2021/05/01 16:44:24;;;;;;;44.55;13.90;;;;;;;;;;5098053;28;20052;-82
2021/05/01 16:46:50;;;;;;;36.30;11.18;;;;;;;;;;5097192;28;20020;-82
2021/05/01 16:49:16;;;;;;;39.22;10.27;;;;;;;;;;5096895;28;20024;-82
2021/05/01 16:51:42;;;;;;;39.75;13.02;;;;;;;;;;5098257;28;20043;-82
2021/05/01 16:54:08;;;;;;;55.47;27.25;;;;;;;;;;5098224;28;20039;-81
2021/05/01 16:56:35;;;;;;;49.05;21.27;;;;;;;;;;5098099;28;20028;-82
2021/05/01 16:59:01;;;;;;;43.35;17.80;;;;;;;;;;5097913;28;20028;-82
2021/05/01 17:01:27;;;;;;;40.80;16.40;;;;;;;;;;5096884;28;20028;-82
2021/05/01 17:03:53;;;;;;;38.80;16.08;;;;;;;;;;5097439;28;20048;-82
2021/05/01 17:06:21;;;;;;;48.60;20.35;;;;;;;;;;5098128;28;20023;-81
2021/05/01 17:08:48;;;;;;;59.97;26.45;;;;;;;;;;5097761;28;20027;-83
2021/05/01 17:11:14;;;;;;;64.10;26.48;;;;;;;;;;5096960;28;20114;-82
2021/05/01 17:13:40;;;;;;;54.28;23.58;;;;;;;;;;5096848;28;20117;-83
2021/05/01 17:16:07;;;;;;;51.92;18.92;;;;;;;;;;5096665;28;20020;-82
2021/05/01 17:18:33;;;;;;;39.08;13.75;;;;;;;;;;5097628;28;20020;-82
2021/05/01 17:20:59;;;;;;;38.63;12.65;;;;;;;;;;5096566;28;20071;-82
2021/05/01 17:23:25;;;;;;;31.05;14.90;;;;;;;;;;5097793;28;20048;-82
2021/05/01 17:25:53;;;;;;;57.20;33.08;;;;;;;;;;5096547;28;20028;-82
2021/05/01 17:28:19;;;;;;;74.53;42.42;;;;;;;;;;5097402;28;20040;-82
2021/05/01 17:30:45;;;;;;;84.32;49.78;;;;;;;;;;5097581;28;20023;-82
2021/05/01 17:33:11;;;;;;;76.22;47.80;;;;;;;;;;5097561;28;20113;-83
2021/05/01 17:35:37;;;;;;;88.97;55.63;;;;;;;;;;5097317;28;20425;-82
2021/05/01 17:38:03;;;;;;;55.28;23.45;;;;;;;;;;5097638;28;20028;-82
2021/05/01 17:40:30;;;;;;;35.90;15.75;;;;;;;;;;5097817;28;20441;-83
2021/05/01 17:42:56;;;;;;;35.28;14.02;;;;;;;;;;5096414;28;20024;-83
2021/05/01 17:45:22;;;;;;;40.60;13.93;;;;;;;;;;5096994;28;20139;-83
2021/05/01 17:47:49;;;;;;;69.53;37.80;;;;;;;;;;5097628;28;20023;-83
2021/05/01 17:50:16;;;;;;;65.90;33.08;;;;;;;;;;5097350;28;20423;-82
2021/05/01 17:52:42;;;;;;;58.35;30.60;;;;;;;;;;5097197;28;20025;-83
2021/05/01 17:55:10;;;;;;;57.63;27.38;;;;;;;;;;5097335;28;20115;-82
2021/05/01 17:57:37;;;;;;;52.45;25.27;;;;;;;;;;5097663;28;20039;-85
2021/05/01 18:00:04;;;;;;;53.13;22.52;;;;;;;;;;5096158;28;20322;-82
2021/05/01 18:02:30;;;;;;;55.67;20.48;;;;;;;;;;5097495;28;20027;-82
2021/05/01 18:04:56;;;;;;;41.53;17.65;;;;;;;;;;5097177;28;20027;-82
2021/05/01 18:07:22;;;;;;;49.78;15.55;;;;;;;;;;5097087;28;20428;-82
2021/05/01 18:09:48;;;;;;;54.67;26.55;;;;;;;;;;5096906;28;20028;-82
2021/05/01 18:12:15;;;;;;;46.78;21.10;;;;;;;;;;5097442;28;20342;-81
2021/05/01 18:14:41;;;;;;;123.07;71.15;;;;;;;;;;5097179;28;20064;-82
2021/05/01 18:17:08;;;;;;;97.50;50.97;;;;;;;;;;5094990;28;20077;-82
2021/05/01 18:19:34;;;;;;;80.65;39.03;;;;;;;;;;5096249;28;20032;-82
2021/05/01 18:22:00;;;;;;;68.07;32.10;;;;;;;;;;5096562;28;20360;-81
2021/05/01 18:24:27;;;;;;;65.13;31.15;;;;;;;;;;5096881;28;20024;-82
2021/05/01 18:26:53;;;;;;;63.05;29.30;;;;;;;;;;5096580;28;20020;-81
2021/05/01 18:29:22;;;;;;;100.43;52.28;;;;;;;;;;5096939;28;20032;-81
2021/05/01 18:31:48;;;;;;;66.00;34.85;;;;;;;;;;5098043;28;20029;-81
2021/05/01 18:34:15;;;;;;;68.13;28.17;;;;;;;;;;5100628;28;20434;-81
2021/05/01 18:36:41;;;;;;;60.97;20.80;;;;;;;;;;5094840;28;20032;-81
2021/05/01 18:39:09;;;;;;;53.47;18.95;;;;;;;;;;5080369;28;20147;-81